Startpagina
METAR-TAF:

METAR-TAF

Vliegvelden :

Geilenkirchen, Duitsland

breedte: 50-57-39N, lengte: 006-2-33E, hoogte: 90 m

Actueel weer

Dit bericht is 17 minuten geleden gemaakt, om 19:50 UTC
Wind 4 kt uit het zuidzuidoosten
Temperatuur 13°C
Vochtigheid 77%
Druk 1015 hPa
Zicht 10 km of meer
geen wolken onder 1500 m en geen cumulonimbus

METAR: ETNG 151950Z 16004KT CAVOK 13/09 Q1015 NOSIG

Tijdstip: 22:07 (20:07 UTC)

Verwachting

Dit bericht is 3 uur en het 7 minuten geleden gemaakt, om 17:00 UTC
Verwachting geldig van 15 om 18 UTC tot 16 om 09 UTC
Wind 3 kt uit variabele richting
Zicht 10 km of meer
geen wolken onder 1500 m en geen cumulonimbus

TAF: ETNG 151700Z 1518/1609 VRB03KT CAVOK

Waarnemingen en weersverwachtingen van meer dan 4000 vliegvelden (METAR en TAF).

De beschikbare stations zijn de gele en rode punten op de kaart.

Ga met uw muis naar het station om de naam te zien.

Klik dan om waarnemingen en weersverwachtingen te zien.

kaart wijzigen: klik op de groene knoppen met een zwart kruis om in te zoomen, op de groene knop met een streepje om uit te zoomen of op de groene pijlen voor aangrenzende kaarten.


METAR-TAF: